Time;durP1;ratioP1;P1;durP2;ratioP2;P2;SDS_P1;SDS_P2;PMS_P1;PMS_P2;Temp;Humidity;BMP_temperature;BMP_pressure;BME280_temperature;BME280_humidity;BME280_pressure;Samples;Min_cycle;Max_cycle;Signal;HPM_P1;HPM_P2
2022/12/26 00:00:00;;;;;;;46.10;33.38;;;;;;;8.81;100.00;100936.41;5028385;28;20021;-78
2022/12/26 00:02:26;;;;;;;42.58;32.65;;;;;;;8.84;100.00;100945.88;5026461;28;20048;-78
2022/12/26 00:04:52;;;;;;;44.65;32.85;;;;;;;8.83;100.00;100945.03;5029106;28;20033;-78
2022/12/26 00:07:17;;;;;;;44.28;33.17;;;;;;;8.85;100.00;100942.28;5028430;28;20029;-80
2022/12/26 00:09:43;;;;;;;42.80;34.15;;;;;;;8.87;100.00;100935.16;5006461;28;20044;-78
2022/12/26 00:12:12;;;;;;;43.72;34.67;;;;;;;8.90;100.00;100945.47;5012852;28;20030;-78
2022/12/26 00:14:38;;;;;;;44.30;34.20;;;;;;;8.90;100.00;100946.28;5025909;28;20037;-78
2022/12/26 00:17:15;;;;;;;46.72;35.88;;;;;;;8.91;100.00;100947.13;5028444;28;20393;-78
2022/12/26 00:19:40;;;;;;;43.42;33.95;;;;;;;8.88;100.00;100942.94;5010283;28;20762;-78
2022/12/26 00:22:17;;;;;;;47.72;36.38;;;;;;;8.91;100.00;100960.25;5011223;28;20029;-78
2022/12/26 00:24:59;;;;;;;47.42;37.13;;;;;;;8.93;100.00;100968.88;5028343;28;20052;-78
2022/12/26 00:27:25;;;;;;;49.67;37.85;;;;;;;8.91;100.00;100957.63;5006583;28;20409;-78
2022/12/26 00:29:50;;;;;;;46.15;36.90;;;;;;;8.93;100.00;100956.59;5028933;28;20032;-78
2022/12/26 00:32:16;;;;;;;48.00;37.22;;;;;;;8.91;100.00;100962.88;5011157;28;20045;-78
2022/12/26 00:34:41;;;;;;;48.95;38.30;;;;;;;8.92;100.00;100975.06;5028383;28;20116;-78
2022/12/26 00:37:06;;;;;;;46.65;37.58;;;;;;;8.92;100.00;100977.69;5027155;28;20412;-78
2022/12/26 00:39:32;;;;;;;50.33;37.85;;;;;;;8.92;100.00;100977.69;5028123;28;20059;-79
2022/12/26 00:41:58;;;;;;;47.25;37.20;;;;;;;8.92;100.00;100975.91;5012604;28;20021;-79
2022/12/26 00:44:23;;;;;;;50.72;37.85;;;;;;;8.92;100.00;100970.66;5028900;28;20108;-78
2022/12/26 00:46:51;;;;;;;45.78;36.58;;;;;;;8.90;100.00;100969.06;5020337;28;20105;-78
2022/12/26 00:49:17;;;;;;;46.20;36.78;;;;;;;8.90;100.00;100977.78;5011274;28;20103;-78
2022/12/26 00:51:42;;;;;;;49.05;36.20;;;;;;;8.92;100.00;100985.56;5011256;28;20033;-78
2022/12/26 00:54:08;;;;;;;43.40;36.20;;;;;;;8.89;100.00;100981.34;5030530;28;20444;-78
2022/12/26 00:56:33;;;;;;;47.38;35.85;;;;;;;8.89;100.00;100985.75;5014716;28;20025;-78
2022/12/26 00:59:10;;;;;;;44.10;35.20;;;;;;;8.90;100.00;100982.19;5030498;28;20025;-78
2022/12/26 01:01:36;;;;;;;46.05;35.35;;;;;;;8.90;100.00;100997.94;5011385;28;20448;-78
2022/12/26 01:04:01;;;;;;;45.88;36.00;;;;;;;8.90;100.00;100983.03;5013278;28;20104;-78
2022/12/26 01:06:42;;;;;;;44.17;35.72;;;;;;;8.90;100.00;100972.53;5011684;28;20433;-78
2022/12/26 01:09:10;;;;;;;45.67;37.00;;;;;;;8.86;100.00;100971.06;5013758;28;20060;-80
2022/12/26 01:11:39;;;;;;;48.78;37.47;;;;;;;8.83;100.00;100989.63;5031201;28;20029;-79
2022/12/26 01:14:06;;;;;;;48.75;39.25;;;;;;;8.81;100.00;101009.88;5029660;28;20036;-80
2022/12/26 01:16:31;;;;;;;52.13;40.92;;;;;;;8.82;100.00;100995.81;5030507;28;20134;-79
2022/12/26 01:18:57;;;;;;;48.75;38.90;;;;;;;8.83;100.00;101007.16;5028117;28;20120;-78
2022/12/26 01:21:22;;;;;;;53.80;40.83;;;;;;;8.82;100.00;101010.72;5031376;28;20025;-78
2022/12/26 01:23:51;;;;;;;52.20;40.60;;;;;;;8.82;100.00;101000.22;5032582;28;20025;-78
2022/12/26 01:26:16;;;;;;;55.33;39.78;;;;;;;8.79;100.00;100991.56;5031913;28;20018;-78
2022/12/26 01:28:42;;;;;;;49.10;40.10;;;;;;;8.78;100.00;100994.28;5012718;28;20393;-78
2022/12/26 01:31:07;;;;;;;47.85;38.78;;;;;;;8.77;100.00;100987.38;5010864;28;20021;-78
2022/12/26 01:33:32;;;;;;;48.80;38.25;;;;;;;8.75;100.00;100997.13;5015335;28;20045;-78
2022/12/26 01:35:58;;;;;;;49.55;38.08;;;;;;;8.75;100.00;100999.75;5006960;28;20108;-78
2022/12/26 01:38:25;;;;;;;46.47;37.88;;;;;;;8.73;100.00;100999.00;5012401;28;20103;-78
2022/12/26 01:41:15;;;;;;;43.72;35.70;;;;;;;8.72;100.00;100999.94;5031380;28;20026;-78
2022/12/26 01:43:51;;;;;;;46.22;36.78;;;;;;;8.72;100.00;100999.94;5012587;28;20465;-80
2022/12/26 01:46:23;;;;;;;38.65;33.10;;;;;;;8.65;100.00;100998.66;5032315;28;20036;-78
2022/12/26 01:48:52;;;;;;;37.30;32.55;;;;;;;8.60;100.00;100996.31;5013258;28;20025;-78
2022/12/26 01:51:23;;;;;;;36.28;31.33;;;;;;;8.60;100.00;100996.31;5025861;28;20045;-78
2022/12/26 01:53:59;;;;;;;36.60;32.03;;;;;;;8.60;100.00;100990.22;5031606;28;20021;-78
2022/12/26 01:56:39;;;;;;;36.40;31.38;;;;;;;8.59;100.00;100996.41;5030292;28;20032;-80
2022/12/26 01:59:10;;;;;;;34.90;29.55;;;;;;;8.54;100.00;101004.59;5012770;28;20069;-78
2022/12/26 02:01:38;;;;;;;32.63;28.98;;;;;;;8.51;100.00;101002.16;4998776;28;20486;-78
2022/12/26 02:06:53;;;;;;;31.48;28.08;;;;;;;8.47;100.00;100992.78;5031886;28;20041;-78
2022/12/26 02:09:22;;;;;;;31.90;28.45;;;;;;;8.48;100.00;100991.84;5019684;28;20398;-78
2022/12/26 02:11:57;;;;;;;31.52;27.88;;;;;;;8.48;100.00;101007.59;5029892;28;20044;-78
2022/12/26 02:14:24;;;;;;;30.45;27.25;;;;;;;8.49;100.00;100998.78;5030842;28;20094;-78
2022/12/26 02:16:49;;;;;;;29.50;25.73;;;;;;;8.51;100.00;101004.78;5030174;28;20059;-78
2022/12/26 02:19:54;;;;;;;31.60;26.27;;;;;;;8.54;100.00;101007.19;5030645;28;20033;-78
2022/12/26 02:22:57;;;;;;;29.15;26.02;;;;;;;8.55;100.00;101014.13;4979392;28;20037;-78
2022/12/26 02:26:07;;;;;;;27.58;24.58;;;;;;;8.56;100.00;101005.31;5016188;28;20104;-78
2022/12/26 02:28:35;;;;;;;28.08;25.10;;;;;;;8.55;100.00;101008.88;5023475;28;20077;-78
2022/12/26 02:31:11;;;;;;;27.15;24.35;;;;;;;8.56;100.00;101004.47;5002916;28;20040;-78
2022/12/26 02:33:45;;;;;;;28.10;24.85;;;;;;;8.57;100.00;100999.13;5028935;28;20132;-78
2022/12/26 02:36:28;;;;;;;27.73;24.80;;;;;;;8.58;100.00;100997.38;5030761;28;20068;-79
2022/12/26 02:39:35;;;;;;;26.88;24.00;;;;;;;8.57;100.00;101001.75;5029691;28;20021;-78
2022/12/26 02:42:19;;;;;;;27.02;24.33;;;;;;;8.54;100.00;101001.97;5024887;28;20021;-78
2022/12/26 02:48:34;;;;;;;27.40;24.45;;;;;;;8.57;100.00;101021.91;5029652;28;20111;-79
2022/12/26 03:14:59;;;;;;;18.83;16.48;;;;;;;8.37;100.00;101017.88;5030344;28;20108;-78
2022/12/26 03:17:54;;;;;;;18.30;16.48;;;;;;;8.37;100.00;101031.00;5017312;28;20034;-78
2022/12/26 03:20:26;;;;;;;18.50;16.70;;;;;;;8.39;100.00;101029.97;5025649;28;20080;-78
2022/12/26 03:22:55;;;;;;;18.70;16.65;;;;;;;8.39;100.00;101026.50;5031075;28;20390;-80
2022/12/26 03:28:41;;;;;;;16.10;14.50;;;;;;;8.40;100.00;101004.59;5015723;28;20063;-78
2022/12/26 03:31:10;;;;;;;16.27;14.63;;;;;;;8.41;100.00;101006.28;5028263;28;20049;-78
2022/12/26 03:36:44;;;;;;;16.35;14.60;;;;;;;8.44;100.00;100993.00;5015372;28;20040;-78
2022/12/26 03:39:19;;;;;;;15.05;13.45;;;;;;;8.42;100.00;100998.34;5029417;28;20028;-78
2022/12/26 04:44:36;;;;;;;13.02;11.73;;;;;;;8.23;100.00;101028.34;5029850;28;20102;-80
2022/12/26 04:47:04;;;;;;;13.52;12.25;;;;;;;8.20;100.00;101023.31;5014589;28;20026;-78
2022/12/26 04:52:23;;;;;;;13.80;12.50;;;;;;;8.18;100.00;101016.38;5032425;28;20041;-78
2022/12/26 04:54:49;;;;;;;14.43;13.02;;;;;;;8.20;100.00;101012.81;5024977;28;20034;-78
2022/12/26 04:57:20;;;;;;;14.82;13.32;;;;;;;8.17;100.00;101006.00;5020970;28;20055;-79
2022/12/26 04:59:52;;;;;;;13.82;12.43;;;;;;;8.16;100.00;101025.28;5013150;28;20026;-78
2022/12/26 05:10:39;;;;;;;14.55;12.50;;;;;;;8.11;100.00;101030.78;5028015;28;20037;-77
2022/12/26 05:13:04;;;;;;;13.73;12.43;;;;;;;8.08;100.00;101028.38;5015257;28;20029;-78
2022/12/26 05:28:40;;;;;;;14.00;12.50;;;;;;;8.06;100.00;101037.25;5013898;28;20025;-78
2022/12/26 05:29:39;;;;;;;12.95;11.50;;;;;;;8.00;100.00;101048.91;5032646;28;20512;-78
2022/12/26 05:32:05;;;;;;;13.20;11.77;;;;;;;7.99;100.00;101036.75;5031596;28;20037;-78
2022/12/26 05:34:30;;;;;;;12.63;11.32;;;;;;;7.99;100.00;101021.03;5031185;28;20033;-78
2022/12/26 05:36:58;;;;;;;11.60;10.40;;;;;;;8.01;100.00;101029.69;5032899;28;20029;-78
2022/12/26 05:39:23;;;;;;;13.10;11.27;;;;;;;7.98;100.00;101021.97;5031624;28;20033;-78
2022/12/26 05:41:49;;;;;;;12.10;10.90;;;;;;;7.98;100.00;101024.59;5031843;28;20029;-78
2022/12/26 05:44:14;;;;;;;11.98;10.77;;;;;;;7.96;100.00;101028.25;5030501;28;20030;-78
2022/12/26 05:46:41;;;;;;;11.50;10.30;;;;;;;7.96;100.00;101010.75;5032255;28;20030;-78
2022/12/26 05:49:07;;;;;;;12.32;11.02;;;;;;;7.96;100.00;101009.91;5014675;28;20022;-78
2022/12/26 05:51:33;;;;;;;10.90;9.80;;;;;;;7.93;100.00;101016.16;5031614;28;20053;-78
2022/12/26 05:53:58;;;;;;;12.77;10.43;;;;;;;7.92;100.00;100997.91;5031935;28;20072;-77
2022/12/26 05:56:25;;;;;;;11.07;9.98;;;;;;;7.90;100.00;101015.50;5031792;28;20389;-79
2022/12/26 05:59:01;;;;;;;13.95;11.25;;;;;;;7.88;100.00;101013.00;5031948;28;20034;-79
2022/12/26 06:01:27;;;;;;;13.10;9.90;;;;;;;7.88;100.00;101002.50;5011138;28;20039;-79
2022/12/26 06:03:56;;;;;;;10.43;9.32;;;;;;;7.89;100.00;101019.91;5031572;28;20521;-79
2022/12/26 06:06:23;;;;;;;10.52;9.43;;;;;;;7.92;100.00;101029.34;5030041;28;20112;-79
2022/12/26 06:08:51;;;;;;;10.82;9.73;;;;;;;7.92;100.00;101037.22;5031032;28;20047;-80
2022/12/26 06:11:17;;;;;;;10.38;9.27;;;;;;;7.96;100.00;101041.34;5013606;28;20488;-79
2022/12/26 06:13:43;;;;;;;11.63;9.20;;;;;;;7.98;100.00;101039.47;5029714;28;20038;-79
2022/12/26 06:16:21;;;;;;;10.77;8.95;;;;;;;8.01;100.00;101045.41;5030555;28;20030;-79
2022/12/26 06:18:47;;;;;;;10.50;9.25;;;;;;;8.02;100.00;101031.34;5014974;28;20041;-79
2022/12/26 06:21:19;;;;;;;10.25;8.50;;;;;;;8.02;100.00;101041.84;5010993;28;20064;-77
2022/12/26 06:24:07;;;;;;;11.52;8.57;;;;;;;8.04;100.00;101055.69;5012026;28;20021;-78
2022/12/26 06:26:42;;;;;;;9.43;8.20;;;;;;;8.05;100.00;101052.13;5012881;28;20033;-77
2022/12/26 06:29:19;;;;;;;9.43;8.52;;;;;;;8.09;100.00;101055.41;5011839;28;20053;-78
2022/12/26 06:31:44;;;;;;;8.90;8.00;;;;;;;8.08;100.00;101057.19;5031188;28;20053;-78
2022/12/26 06:34:11;;;;;;;10.52;8.27;;;;;;;8.09;100.00;101065.91;5029274;28;20031;-78
2022/12/26 06:36:36;;;;;;;9.65;8.02;;;;;;;8.07;100.00;101071.22;5025373;28;20033;-78
2022/12/26 06:39:16;;;;;;;9.43;7.78;;;;;;;8.09;100.00;101074.59;5011836;28;20087;-78
2022/12/26 06:41:42;;;;;;;8.73;7.82;;;;;;;8.08;100.00;101078.16;5030989;28;20063;-79
2022/12/26 06:44:09;;;;;;;8.40;7.25;;;;;;;8.02;100.00;101075.91;5010613;28;20032;-78
2022/12/26 06:46:34;;;;;;;8.80;7.20;;;;;;;8.03;100.00;101072.34;5030629;28;20119;-78
2022/12/26 06:49:00;;;;;;;7.60;6.90;;;;;;;8.03;100.00;101076.75;5030712;28;20033;-78
2022/12/26 06:51:29;;;;;;;8.75;7.00;;;;;;;7.98;100.00;101068.28;5020821;28;20064;-78
2022/12/26 06:53:54;;;;;;;8.02;7.22;;;;;;;7.98;100.00;101063.88;4994489;28;20065;-77
2022/12/26 06:56:23;;;;;;;9.60;6.88;;;;;;;7.96;100.00;101057.91;5018624;28;20057;-77
2022/12/26 06:59:10;;;;;;;9.23;6.57;;;;;;;7.97;100.00;101067.44;5011728;28;20060;-77
2022/12/26 07:01:35;;;;;;;8.00;6.60;;;;;;;7.94;100.00;101075.50;5007874;28;20037;-77
2022/12/26 07:04:03;;;;;;;8.88;6.40;;;;;;;7.93;100.00;101070.34;5031382;28;20021;-77
2022/12/26 07:06:30;;;;;;;8.77;6.38;;;;;;;7.92;100.00;101066.03;5012156;28;20032;-77
2022/12/26 07:08:59;;;;;;;7.95;5.40;;;;;;;7.91;100.00;101062.56;5011694;28;20044;-77
2022/12/26 07:11:32;;;;;;;6.85;5.70;;;;;;;7.92;100.00;101066.88;5029878;28;20028;-77
2022/12/26 07:13:58;;;;;;;7.38;5.13;;;;;;;7.89;100.00;101067.06;5031085;28;20025;-77
2022/12/26 07:16:27;;;;;;;6.75;5.75;;;;;;;7.88;100.00;101068.00;5029364;28;20037;-77
2022/12/26 07:18:53;;;;;;;6.32;5.65;;;;;;;7.86;100.00;101070.72;5011578;28;20047;-77
2022/12/26 07:21:19;;;;;;;7.80;5.97;;;;;;;7.85;100.00;101065.56;5008342;28;20037;-77
2022/12/26 07:23:45;;;;;;;9.77;5.88;;;;;;;7.85;100.00;101069.03;5030451;28;20498;-77
2022/12/26 07:26:10;;;;;;;8.68;5.50;;;;;;;7.84;100.00;101071.72;5021822;28;20028;-78
2022/12/26 07:28:36;;;;;;;10.32;5.38;;;;;;;7.83;100.00;101072.66;5025517;28;20041;-78
2022/12/26 07:31:04;;;;;;;7.47;5.95;;;;;;;7.83;100.00;101073.50;5012760;28;20440;-78
2022/12/26 07:33:30;;;;;;;9.45;5.70;;;;;;;7.87;100.00;101071.56;5029643;28;20463;-77
2022/12/26 07:35:59;;;;;;;9.90;5.80;;;;;;;7.87;100.00;101074.16;5028556;28;20029;-78
2022/12/26 07:38:24;;;;;;;7.13;5.97;;;;;;;7.87;100.00;101076.78;5021336;28;20457;-78
2022/12/26 07:40:50;;;;;;;7.43;5.90;;;;;;;7.85;100.00;101086.53;5030434;28;20125;-77
2022/12/26 07:43:34;;;;;;;14.82;6.00;;;;;;;7.88;100.00;101096.81;5028867;28;20370;-78
2022/12/26 07:45:59;;;;;;;8.32;5.40;;;;;;;7.87;100.00;101084.66;5030570;28;20112;-79
2022/12/26 07:48:31;;;;;;;10.00;5.95;;;;;;;7.88;100.00;101090.72;5028556;28;20104;-78
2022/12/26 07:51:01;;;;;;;7.07;5.53;;;;;;;7.83;100.00;101080.53;5012609;28;20045;-78
2022/12/26 07:53:26;;;;;;;10.75;5.70;;;;;;;7.82;100.00;101082.31;5012090;28;20532;-78
2022/12/26 07:55:57;;;;;;;8.25;6.00;;;;;;;7.83;100.00;101083.16;5028992;28;20028;-78
2022/12/26 07:58:23;;;;;;;9.18;5.65;;;;;;;7.86;100.00;101102.16;5012155;28;20028;-77
2022/12/26 08:00:48;;;;;;;7.78;5.68;;;;;;;7.86;100.00;101093.44;5010670;28;20037;-77
2022/12/26 08:03:13;;;;;;;9.25;5.95;;;;;;;7.85;100.00;101089.97;5030067;28;20048;-77
2022/12/26 08:05:51;;;;;;;8.48;5.68;;;;;;;7.89;100.00;101093.25;5002054;28;20037;-77
2022/12/26 08:08:16;;;;;;;7.28;5.13;;;;;;;7.89;100.00;101092.41;5007183;28;20057;-80
2022/12/26 08:10:42;;;;;;;8.93;5.30;;;;;;;7.91;100.00;101095.78;5028952;28;20067;-80
2022/12/26 08:13:08;;;;;;;7.97;5.38;;;;;;;7.91;100.00;101104.50;5011690;28;20133;-80
2022/12/26 08:15:33;;;;;;;9.30;5.20;;;;;;;7.89;100.00;101090.66;5026562;28;20030;-78
2022/12/26 08:17:59;;;;;;;8.30;5.10;;;;;;;7.93;100.00;101102.63;5014738;28;20022;-78
2022/12/26 08:20:33;;;;;;;10.43;5.15;;;;;;;7.94;100.00;101106.94;5003460;28;21390;-77
2022/12/26 08:22:59;;;;;;;7.90;4.60;;;;;;;7.96;100.00;101099.81;5027623;28;20071;-77
2022/12/26 08:25:24;;;;;;;7.75;4.93;;;;;;;8.01;100.00;101097.81;5011697;28;20029;-77
2022/12/26 08:27:50;;;;;;;8.75;4.53;;;;;;;8.06;100.00;101095.75;5029324;28;20109;-77
2022/12/26 08:30:27;;;;;;;7.32;4.55;;;;;;;8.10;100.00;101102.50;5028780;28;20528;-77
2022/12/26 08:32:53;;;;;;;6.63;4.75;;;;;;;8.14;100.00;101100.53;5028427;28;20044;-77
2022/12/26 08:35:21;;;;;;;6.35;4.78;;;;;;;8.18;100.00;101102.88;5027732;28;20464;-77
2022/12/26 08:37:47;;;;;;;10.73;5.10;;;;;;;8.24;100.00;101109.50;5028480;28;20456;-76
2022/12/26 08:40:13;;;;;;;7.28;4.40;;;;;;;8.29;100.00;101112.69;5025982;28;20034;-78
2022/12/26 08:42:39;;;;;;;7.70;4.38;;;;;;;8.35;100.00;101122.00;5027782;28;20869;-78
2022/12/26 08:45:14;;;;;;;7.15;4.20;;;;;;;8.38;100.00;101122.66;5028043;28;20053;-77
2022/12/26 08:47:42;;;;;;;6.25;4.20;;;;;;;8.43;100.00;101123.25;5028609;28;20555;-78
2022/12/26 08:50:08;;;;;;;9.55;4.15;;;;;;;8.50;100.00;101130.75;5027121;28;20041;-77
2022/12/26 08:52:34;;;;;;;8.38;4.28;;;;;;;8.55;100.00;101129.53;5027693;28;20454;-77
2022/12/26 08:55:00;;;;;;;6.13;3.83;;;;;;;8.60;100.00;101121.38;5028900;28;20104;-77
2022/12/26 08:57:26;;;;;;;5.70;3.97;;;;;;;8.63;100.00;101129.88;5009937;28;20034;-77
2022/12/26 08:59:51;;;;;;;7.97;3.70;;;;;;;8.69;100.00;101136.53;5027868;28;20034;-77
2022/12/26 09:02:24;;;;;;;5.30;3.00;;;;;;;8.74;100.00;101139.72;5025243;28;20029;-77
2022/12/26 09:04:50;;;;;;;6.47;3.10;;;;;;;8.78;100.00;101146.47;5007153;28;20386;-77
2022/12/26 09:07:15;;;;;;;7.75;3.28;;;;;;;8.82;100.00;101141.88;5025035;28;20026;-77
2022/12/26 09:09:41;;;;;;;5.68;3.42;;;;;;;8.90;100.00;101137.84;5025572;28;20041;-77
2022/12/26 09:12:06;;;;;;;4.97;2.60;;;;;;;8.96;100.00;101144.50;5027185;28;20033;-76
2022/12/26 09:14:32;;;;;;;6.43;2.72;;;;;;;8.99;100.00;101141.66;5000787;28;20065;-79
2022/12/26 09:16:57;;;;;;;5.97;2.58;;;;;;;9.10;100.00;101137.44;5031019;28;20096;-76
2022/12/26 09:19:23;;;;;;;9.82;2.83;;;;;;;9.19;100.00;101150.91;5028692;28;20108;-77
2022/12/26 09:22:49;;;;;;;6.57;2.13;;;;;;;9.23;100.00;101153.28;5031682;28;20025;-78
2022/12/26 09:24:34;;;;;;;5.88;2.03;;;;;;;9.29;100.00;101137.13;5003054;28;20121;-77
2022/12/26 09:27:01;;;;;;;6.97;1.80;;;;;;;9.37;100.00;101150.59;5030385;28;20104;-77
2022/12/26 09:29:26;;;;;;;5.05;1.70;;;;;;;9.42;100.00;101155.53;5030660;28;20033;-77
2022/12/26 09:31:54;;;;;;;4.97;1.88;;;;;;;9.41;100.00;101154.72;5031081;28;20106;-77
2022/12/26 09:34:19;;;;;;;6.60;1.88;;;;;;;9.42;100.00;101164.28;5031324;28;20028;-77
2022/12/26 09:36:45;;;;;;;7.70;1.77;;;;;;;9.43;100.00;101165.94;5032619;28;20029;-77
2022/12/26 09:39:10;;;;;;;8.63;1.80;;;;;;;9.41;100.00;101180.97;5029041;28;20025;-77
2022/12/26 09:41:57;;;;;;;6.15;2.25;;;;;;;9.46;100.00;101185.09;5023049;28;20061;-76
2022/12/26 09:44:31;;;;;;;7.45;1.90;;;;;;;9.41;100.00;101183.59;5030499;28;20029;-78
2022/12/26 09:47:14;;;;;;;4.05;1.80;;;;;;;9.40;100.00;101184.53;5026920;28;20032;-78
2022/12/26 09:49:58;;;;;;;13.80;7.50;;;;;;;9.40;100.00;101192.41;5031306;28;20030;-78
2022/12/26 09:52:35;;;;;;;10.75;6.60;;;;;;;9.38;100.00;101177.69;5030983;28;20021;-78
2022/12/26 09:55:43;;;;;;;20.77;10.70;;;;;;;9.38;100.00;101204.81;5030626;28;20380;-78
2022/12/26 09:58:17;;;;;;;10.50;5.57;;;;;;;9.37;100.00;101205.75;5030665;28;20171;-78
2022/12/26 10:00:49;;;;;;;16.80;8.48;;;;;;;9.35;100.00;101207.63;5030285;28;20029;-78
2022/12/26 10:03:15;;;;;;;24.27;13.90;;;;;;;9.33;100.00;101208.66;5018349;28;20056;-78
2022/12/26 10:06:01;;;;;;;16.50;11.23;;;;;;;9.32;100.00;101215.69;5013223;28;20362;-78
2022/12/26 10:09:07;;;;;;;13.77;7.60;;;;;;;9.35;100.00;101215.50;5004295;28;20482;-78
2022/12/26 10:12:04;;;;;;;22.42;11.98;;;;;;;9.35;100.00;101215.50;5025014;28;20021;-77
2022/12/26 10:15:06;;;;;;;40.03;30.85;;;;;;;9.37;100.00;101208.38;5028087;28;20029;-77
2022/12/26 10:18:01;;;;;;;18.80;11.95;;;;;;;9.41;100.00;101220.34;5011743;28;20163;-77
2022/12/26 10:20:51;;;;;;;22.38;15.07;;;;;;;9.40;100.00;101217.84;5027025;28;20243;-77
2022/12/26 10:23:41;;;;;;;25.52;15.77;;;;;;;9.43;100.00;101226.34;5004261;28;20029;-77
2022/12/26 10:26:29;;;;;;;16.23;9.25;;;;;;;9.42;100.00;101222.03;5025704;28;20057;-77
2022/12/26 10:29:06;;;;;;;22.08;13.15;;;;;;;9.41;100.00;101241.38;5026344;28;20112;-78
2022/12/26 10:31:53;;;;;;;20.83;12.23;;;;;;;9.44;100.00;101229.81;5031409;28;20025;-77
2022/12/26 10:34:29;;;;;;;40.00;25.65;;;;;;;9.43;100.00;101255.25;5019598;28;20013;-78
2022/12/26 10:37:02;;;;;;;11.18;3.20;;;;;;;9.36;100.00;101279.38;5030225;28;20029;-78
2022/12/26 10:39:46;;;;;;;6.90;2.08;;;;;;;9.26;100.00;101292.22;5030669;28;20109;-78
2022/12/26 10:42:45;;;;;;;10.25;1.60;;;;;;;9.00;100.00;101293.81;5018249;28;20060;-80
2022/12/26 10:45:17;;;;;;;7.03;1.70;;;;;;;8.73;100.00;101309.41;5025484;28;20068;-78
2022/12/26 10:47:48;;;;;;;7.77;1.73;;;;;;;8.59;100.00;101291.00;5010344;28;20058;-79
2022/12/26 10:50:23;;;;;;;7.38;1.83;;;;;;;8.44;100.00;101299.78;5012273;28;20022;-78
2022/12/26 10:52:55;;;;;;;9.20;2.05;;;;;;;8.45;100.00;101304.09;5030920;28;20075;-79
2022/12/26 10:55:31;;;;;;;7.13;2.00;;;;;;;8.38;100.00;101306.19;5009228;28;20089;-78
2022/12/26 10:58:04;;;;;;;11.05;2.20;;;;;;;8.31;100.00;101317.09;5021802;28;20035;-79
2022/12/26 11:00:30;;;;;;;13.88;2.70;;;;;;;8.33;100.00;101313.47;4995174;28;20083;-79
2022/12/26 11:03:11;;;;;;;10.73;2.13;;;;;;;8.33;100.00;101323.09;5010953;28;20037;-79
2022/12/26 11:05:39;;;;;;;9.18;2.33;;;;;;;8.23;100.00;101321.94;5010667;28;20042;-80
2022/12/26 11:08:08;;;;;;;11.57;2.20;;;;;;;8.23;100.00;101337.66;5029904;28;20036;-79
2022/12/26 11:10:36;;;;;;;14.88;2.75;;;;;;;8.13;100.00;101338.19;5029375;28;20092;-80
2022/12/26 11:13:25;;;;;;;10.10;2.63;;;;;;;8.15;100.00;101341.56;5010681;28;20029;-78
2022/12/26 11:15:52;;;;;;;11.38;2.63;;;;;;;8.12;100.00;101351.38;5022573;28;20037;-81
2022/12/26 11:18:38;;;;;;;10.38;2.42;;;;;;;8.12;100.00;101346.97;5026108;28;20025;-81
2022/12/26 11:21:38;;;;;;;13.15;2.78;;;;;;;8.17;100.00;101355.41;5009685;28;20061;-79
2022/12/26 11:24:09;;;;;;;14.55;2.92;;;;;;;8.18;100.00;101358.88;5029065;28;20025;-79
2022/12/26 11:26:43;;;;;;;12.80;3.03;;;;;;;8.11;100.00;101366.25;5029496;28;20034;-78
2022/12/26 11:29:20;;;;;;;14.32;3.17;;;;;;;8.11;100.00;101366.25;5029400;28;20033;-78
2022/12/26 11:32:00;;;;;;;11.70;2.53;;;;;;;8.11;100.00;101362.78;5029418;28;20057;-78
2022/12/26 11:34:34;;;;;;;16.63;3.85;;;;;;;8.07;100.00;101369.13;5029130;28;20104;-79
2022/12/26 11:37:00;;;;;;;12.88;3.42;;;;;;;8.02;100.00;101369.38;5010373;28;20029;-79
2022/12/26 11:39:33;;;;;;;11.73;3.08;;;;;;;8.02;100.00;101373.78;5028850;28;20102;-79
2022/12/26 11:41:59;;;;;;;15.82;3.92;;;;;;;8.02;100.00;101372.00;5029853;28;20036;-79
2022/12/26 11:44:33;;;;;;;9.27;3.38;;;;;;;7.94;100.00;101379.41;5012026;28;20112;-79
2022/12/26 11:47:34;;;;;;;14.88;3.50;;;;;;;7.94;100.00;101384.66;5029077;28;20466;-78
2022/12/26 11:50:23;;;;;;;10.88;2.88;;;;;;;7.92;100.00;101381.28;4987089;28;20062;-79
2022/12/26 11:53:13;;;;;;;12.90;3.15;;;;;;;7.92;100.00;101391.75;4986768;28;20034;-78
2022/12/26 11:56:19;;;;;;;11.18;2.70;;;;;;;7.92;100.00;101389.13;4968477;28;20061;-79
2022/12/26 11:58:44;;;;;;;12.43;2.88;;;;;;;7.96;100.00;101387.19;4968373;28;20406;-79
2022/12/26 12:01:24;;;;;;;12.85;3.22;;;;;;;8.03;100.00;101388.56;4967396;28;20035;-79
2022/12/26 12:03:50;;;;;;;13.32;2.78;;;;;;;8.02;100.00;101408.69;4968966;28;20026;-78
2022/12/26 12:06:40;;;;;;;13.50;3.13;;;;;;;8.05;100.00;101405.91;4953155;28;20173;-78
2022/12/26 12:09:11;;;;;;;10.30;2.50;;;;;;;7.98;100.00;101416.78;4951668;28;20099;-78
2022/12/26 12:11:54;;;;;;;12.85;2.58;;;;;;;7.98;100.00;101419.38;4972077;28;20038;-78
2022/12/26 12:14:46;;;;;;;11.18;2.55;;;;;;;7.88;100.00;101419.03;4984725;28;20069;-77
2022/12/26 12:17:53;;;;;;;9.88;2.55;;;;;;;7.90;100.00;101417.19;5010464;28;20029;-78
2022/12/26 12:20:31;;;;;;;11.32;2.97;;;;;;;7.84;100.00;101413.13;4963358;28;20045;-78
2022/12/26 12:23:21;;;;;;;10.88;2.30;;;;;;;7.86;100.00;101413.03;5009619;28;20025;-78
2022/12/26 12:26:07;;;;;;;13.20;2.80;;;;;;;7.79;100.00;101411.69;5010835;28;20038;-78
2022/12/26 12:29:14;;;;;;;11.20;3.08;;;;;;;7.74;100.00;101416.31;5011551;28;20032;-78
2022/12/26 12:32:00;;;;;;;13.85;3.17;;;;;;;7.72;100.00;101412.94;4989320;28;20042;-78
2022/12/26 12:34:40;;;;;;;12.82;2.63;;;;;;;7.68;100.00;101414.03;5007692;28;20030;-78
2022/12/26 12:37:23;;;;;;;12.05;2.30;;;;;;;7.63;100.00;101422.13;5019234;28;20102;-77
2022/12/26 12:40:14;;;;;;;11.70;2.90;;;;;;;7.64;100.00;101428.22;5029156;28;20114;-77
2022/12/26 12:43:00;;;;;;;12.98;2.58;;;;;;;7.60;100.00;101431.91;5027082;28;20533;-77
2022/12/26 12:45:33;;;;;;;11.73;2.35;;;;;;;7.48;100.00;101433.38;5014471;28;20395;-77
2022/12/26 12:48:01;;;;;;;;;;;;;;;7.61;100.00;101438.84;5009796;28;20030;-76
2022/12/26 12:50:52;;;;;;;9.05;2.35;;;;;;;7.47;100.00;101443.00;5008906;28;20071;-79
2022/12/26 12:53:57;;;;;;;6.03;1.73;;;;;;;7.31;96.66;101442.13;5027698;28;20478;-79
2022/12/26 12:56:43;;;;;;;8.82;2.20;;;;;;;7.31;98.24;101457.81;5013533;28;20071;-79
2022/12/26 12:59:32;;;;;;;7.47;2.10;;;;;;;7.23;98.89;101466.06;5031467;28;20029;-78
2022/12/26 13:02:03;;;;;;;8.50;1.88;;;;;;;7.13;98.02;101458.72;5015251;28;20041;-77
2022/12/26 13:04:37;;;;;;;9.18;2.42;;;;;;;7.09;96.61;101457.19;4994733;28;20026;-77
2022/12/26 13:07:13;;;;;;;10.10;1.80;;;;;;;7.14;97.06;101452.56;5013105;28;20535;-77
2022/12/26 13:09:47;;;;;;;7.65;2.17;;;;;;;7.13;96.22;101448.25;5013948;28;20021;-76
2022/12/26 13:12:27;;;;;;;9.88;2.40;;;;;;;7.09;96.71;101462.41;4994509;28;20033;-76
2022/12/26 13:15:03;;;;;;;6.53;1.77;;;;;;;7.10;97.01;101451.03;5011511;28;20026;-76
2022/12/26 13:17:34;;;;;;;6.25;1.80;;;;;;;7.10;98.35;101461.50;5015996;28;20026;-77
2022/12/26 13:20:08;;;;;;;6.30;1.73;;;;;;;7.07;96.00;101451.19;5013342;28;20026;-77
2022/12/26 13:25:27;;;;;;;5.57;1.95;;;;;;;7.02;95.51;101455.81;5012569;28;20037;-77
2022/12/26 13:27:55;;;;;;;5.93;2.10;;;;;;;7.08;96.04;101460.72;5012742;28;20549;-77
2022/12/26 13:30:28;;;;;;;7.90;1.90;;;;;;;7.14;96.89;101470.88;5012821;28;20477;-76
2022/12/26 13:32:55;;;;;;;8.10;2.10;;;;;;;7.06;94.83;101475.66;5013017;28;20057;-77
2022/12/26 13:35:51;;;;;;;7.47;1.67;;;;;;;7.11;96.41;101476.28;5013939;28;20163;-77
2022/12/26 13:38:21;;;;;;;8.32;2.00;;;;;;;7.01;96.13;101477.66;5012268;28;20029;-77
2022/12/26 13:40:52;;;;;;;9.95;2.03;;;;;;;7.00;96.84;101470.72;5012637;28;20581;-76
2022/12/26 13:46:34;;;;;;;6.90;1.92;;;;;;;7.01;96.82;101482.88;5011812;28;20092;-79
2022/12/26 13:48:59;;;;;;;6.05;1.80;;;;;;;6.95;95.40;101483.19;4994911;28;20041;-76
2022/12/26 13:52:09;;;;;;;6.90;1.80;;;;;;;7.02;96.24;101487.19;5026079;28;20473;-76
2022/12/26 13:54:36;;;;;;;11.43;2.50;;;;;;;6.94;94.21;101499.81;4967163;28;20090;-76